sensor_id;sensor_type;location;lat;lon;timestamp;P1;durP1;ratioP1;P2;durP2;ratioP2
65879;SDS011;52661;51.364;6.054;2023-09-07T00:01:56;6.57;;;3.53;;
65879;SDS011;52661;51.364;6.054;2023-09-07T00:04:21;6.72;;;3.33;;
65879;SDS011;52661;51.364;6.054;2023-09-07T00:06:48;7.93;;;3.88;;
65879;SDS011;52661;51.364;6.054;2023-09-07T00:09:14;5.63;;;2.95;;
65879;SDS011;52661;51.364;6.054;2023-09-07T00:11:47;9.02;;;3.80;;
65879;SDS011;52661;51.364;6.054;2023-09-07T00:14:13;8.73;;;4.05;;
65879;SDS011;52661;51.364;6.054;2023-09-07T00:16:38;8.52;;;4.82;;
65879;SDS011;52661;51.364;6.054;2023-09-07T00:19:04;9.63;;;4.13;;
65879;SDS011;52661;51.364;6.054;2023-09-07T00:21:30;7.70;;;3.80;;
65879;SDS011;52661;51.364;6.054;2023-09-07T00:23:56;7.88;;;3.67;;
65879;SDS011;52661;51.364;6.054;2023-09-07T00:26:21;6.67;;;4.33;;
65879;SDS011;52661;51.364;6.054;2023-09-07T00:28:47;9.63;;;4.55;;
65879;SDS011;52661;51.364;6.054;2023-09-07T00:31:12;7.50;;;4.05;;
65879;SDS011;52661;51.364;6.054;2023-09-07T00:33:37;8.95;;;3.90;;
65879;SDS011;52661;51.364;6.054;2023-09-07T00:36:03;6.97;;;3.70;;
65879;SDS011;52661;51.364;6.054;2023-09-07T00:38:28;7.90;;;4.10;;
65879;SDS011;52661;51.364;6.054;2023-09-07T00:40:54;7.50;;;4.10;;
65879;SDS011;52661;51.364;6.054;2023-09-07T00:43:20;7.05;;;4.00;;
65879;SDS011;52661;51.364;6.054;2023-09-07T00:45:45;9.63;;;4.50;;
65879;SDS011;52661;51.364;6.054;2023-09-07T00:48:11;8.88;;;4.50;;
65879;SDS011;52661;51.364;6.054;2023-09-07T00:50:38;7.35;;;3.95;;
65879;SDS011;52661;51.364;6.054;2023-09-07T00:53:04;8.05;;;4.22;;
65879;SDS011;52661;51.364;6.054;2023-09-07T00:55:32;6.35;;;3.67;;
65879;SDS011;52661;51.364;6.054;2023-09-07T00:57:59;5.97;;;3.50;;
65879;SDS011;52661;51.364;6.054;2023-09-07T01:00:25;7.75;;;3.83;;
65879;SDS011;52661;51.364;6.054;2023-09-07T01:02:51;7.30;;;3.30;;
65879;SDS011;52661;51.364;6.054;2023-09-07T01:05:16;7.85;;;3.42;;
65879;SDS011;52661;51.364;6.054;2023-09-07T01:07:50;7.32;;;3.90;;
65879;SDS011;52661;51.364;6.054;2023-09-07T01:10:22;7.03;;;3.85;;
65879;SDS011;52661;51.364;6.054;2023-09-07T01:12:48;5.50;;;3.72;;
65879;SDS011;52661;51.364;6.054;2023-09-07T01:15:13;7.10;;;2.90;;
65879;SDS011;52661;51.364;6.054;2023-09-07T01:17:39;8.75;;;3.65;;
65879;SDS011;52661;51.364;6.054;2023-09-07T01:20:06;6.38;;;3.28;;
65879;SDS011;52661;51.364;6.054;2023-09-07T01:22:37;5.28;;;3.10;;
65879;SDS011;52661;51.364;6.054;2023-09-07T01:25:04;6.45;;;3.17;;
65879;SDS011;52661;51.364;6.054;2023-09-07T01:27:31;8.43;;;3.70;;
65879;SDS011;52661;51.364;6.054;2023-09-07T01:29:58;9.70;;;3.75;;
65879;SDS011;52661;51.364;6.054;2023-09-07T01:32:23;11.55;;;3.10;;
65879;SDS011;52661;51.364;6.054;2023-09-07T01:34:49;10.50;;;3.53;;
65879;SDS011;52661;51.364;6.054;2023-09-07T01:37:15;7.43;;;3.42;;
65879;SDS011;52661;51.364;6.054;2023-09-07T01:39:40;6.95;;;3.47;;
65879;SDS011;52661;51.364;6.054;2023-09-07T01:42:06;9.57;;;3.90;;
65879;SDS011;52661;51.364;6.054;2023-09-07T01:44:31;7.00;;;3.28;;
65879;SDS011;52661;51.364;6.054;2023-09-07T01:46:56;7.45;;;3.67;;
65879;SDS011;52661;51.364;6.054;2023-09-07T01:49:22;6.38;;;3.25;;
65879;SDS011;52661;51.364;6.054;2023-09-07T01:51:47;6.07;;;3.50;;
65879;SDS011;52661;51.364;6.054;2023-09-07T01:54:12;8.52;;;3.85;;
65879;SDS011;52661;51.364;6.054;2023-09-07T01:56:38;7.30;;;3.73;;
65879;SDS011;52661;51.364;6.054;2023-09-07T01:59:06;6.97;;;3.63;;
65879;SDS011;52661;51.364;6.054;2023-09-07T02:01:31;5.93;;;3.35;;
65879;SDS011;52661;51.364;6.054;2023-09-07T02:03:59;10.23;;;4.35;;
65879;SDS011;52661;51.364;6.054;2023-09-07T02:06:24;7.75;;;3.78;;
65879;SDS011;52661;51.364;6.054;2023-09-07T02:08:49;6.65;;;4.10;;
65879;SDS011;52661;51.364;6.054;2023-09-07T02:11:15;7.33;;;3.30;;
65879;SDS011;52661;51.364;6.054;2023-09-07T02:13:43;7.90;;;3.38;;
65879;SDS011;52661;51.364;6.054;2023-09-07T02:16:11;7.07;;;3.08;;
65879;SDS011;52661;51.364;6.054;2023-09-07T02:18:36;7.57;;;3.20;;
65879;SDS011;52661;51.364;6.054;2023-09-07T02:21:05;9.88;;;3.58;;
65879;SDS011;52661;51.364;6.054;2023-09-07T02:23:31;6.47;;;3.22;;
65879;SDS011;52661;51.364;6.054;2023-09-07T02:25:57;8.07;;;3.20;;
65879;SDS011;52661;51.364;6.054;2023-09-07T02:28:26;6.65;;;3.28;;
65879;SDS011;52661;51.364;6.054;2023-09-07T02:30:52;7.88;;;3.47;;
65879;SDS011;52661;51.364;6.054;2023-09-07T02:33:17;8.45;;;3.75;;
65879;SDS011;52661;51.364;6.054;2023-09-07T02:35:42;6.95;;;3.60;;
65879;SDS011;52661;51.364;6.054;2023-09-07T02:38:08;6.55;;;3.10;;
65879;SDS011;52661;51.364;6.054;2023-09-07T02:40:39;11.25;;;4.53;;
65879;SDS011;52661;51.364;6.054;2023-09-07T02:43:06;6.85;;;3.55;;
65879;SDS011;52661;51.364;6.054;2023-09-07T02:45:31;5.55;;;3.53;;
65879;SDS011;52661;51.364;6.054;2023-09-07T02:47:56;9.37;;;3.93;;
65879;SDS011;52661;51.364;6.054;2023-09-07T02:50:22;7.68;;;3.92;;
65879;SDS011;52661;51.364;6.054;2023-09-07T02:52:47;6.43;;;3.15;;
65879;SDS011;52661;51.364;6.054;2023-09-07T02:55:13;8.48;;;3.50;;
65879;SDS011;52661;51.364;6.054;2023-09-07T02:57:38;6.30;;;3.13;;
65879;SDS011;52661;51.364;6.054;2023-09-07T03:00:04;6.15;;;3.17;;
65879;SDS011;52661;51.364;6.054;2023-09-07T03:02:34;5.63;;;2.60;;
65879;SDS011;52661;51.364;6.054;2023-09-07T03:05:00;6.05;;;3.20;;
65879;SDS011;52661;51.364;6.054;2023-09-07T03:07:26;7.22;;;3.40;;
65879;SDS011;52661;51.364;6.054;2023-09-07T03:09:52;6.13;;;3.30;;
65879;SDS011;52661;51.364;6.054;2023-09-07T03:12:17;6.38;;;2.55;;
65879;SDS011;52661;51.364;6.054;2023-09-07T03:14:43;5.72;;;2.97;;
65879;SDS011;52661;51.364;6.054;2023-09-07T03:17:09;5.47;;;2.70;;
65879;SDS011;52661;51.364;6.054;2023-09-07T03:19:35;8.93;;;3.35;;
65879;SDS011;52661;51.364;6.054;2023-09-07T03:22:01;5.85;;;3.10;;
65879;SDS011;52661;51.364;6.054;2023-09-07T03:24:26;5.73;;;3.40;;
65879;SDS011;52661;51.364;6.054;2023-09-07T03:26:53;5.82;;;3.38;;
65879;SDS011;52661;51.364;6.054;2023-09-07T03:29:18;5.32;;;2.85;;
65879;SDS011;52661;51.364;6.054;2023-09-07T03:31:43;5.47;;;2.57;;
65879;SDS011;52661;51.364;6.054;2023-09-07T03:34:09;5.10;;;2.97;;
65879;SDS011;52661;51.364;6.054;2023-09-07T03:36:34;4.97;;;2.80;;
65879;SDS011;52661;51.364;6.054;2023-09-07T03:39:01;7.15;;;2.85;;
65879;SDS011;52661;51.364;6.054;2023-09-07T03:41:27;8.77;;;3.38;;
65879;SDS011;52661;51.364;6.054;2023-09-07T03:43:55;7.45;;;2.90;;
65879;SDS011;52661;51.364;6.054;2023-09-07T03:46:21;6.22;;;2.88;;
65879;SDS011;52661;51.364;6.054;2023-09-07T03:48:46;5.43;;;3.05;;
65879;SDS011;52661;51.364;6.054;2023-09-07T03:51:12;5.88;;;2.88;;
65879;SDS011;52661;51.364;6.054;2023-09-07T03:53:38;6.45;;;3.33;;
65879;SDS011;52661;51.364;6.054;2023-09-07T03:56:03;6.45;;;2.90;;
65879;SDS011;52661;51.364;6.054;2023-09-07T03:58:29;5.95;;;3.05;;
65879;SDS011;52661;51.364;6.054;2023-09-07T04:00:54;6.25;;;3.13;;
65879;SDS011;52661;51.364;6.054;2023-09-07T04:03:20;6.53;;;3.25;;
65879;SDS011;52661;51.364;6.054;2023-09-07T04:05:45;6.50;;;3.42;;
65879;SDS011;52661;51.364;6.054;2023-09-07T04:08:10;5.70;;;3.17;;
65879;SDS011;52661;51.364;6.054;2023-09-07T04:10:36;6.70;;;3.10;;
65879;SDS011;52661;51.364;6.054;2023-09-07T04:13:03;7.40;;;2.88;;
65879;SDS011;52661;51.364;6.054;2023-09-07T04:15:29;7.10;;;3.10;;
65879;SDS011;52661;51.364;6.054;2023-09-07T04:17:56;6.53;;;2.95;;
65879;SDS011;52661;51.364;6.054;2023-09-07T04:20:21;6.68;;;3.15;;
65879;SDS011;52661;51.364;6.054;2023-09-07T04:22:47;7.50;;;2.97;;
65879;SDS011;52661;51.364;6.054;2023-09-07T04:25:12;6.03;;;3.30;;
65879;SDS011;52661;51.364;6.054;2023-09-07T04:27:38;6.30;;;3.23;;
65879;SDS011;52661;51.364;6.054;2023-09-07T04:30:03;5.50;;;2.53;;
65879;SDS011;52661;51.364;6.054;2023-09-07T04:32:29;5.35;;;2.60;;
65879;SDS011;52661;51.364;6.054;2023-09-07T04:34:55;6.20;;;2.97;;
65879;SDS011;52661;51.364;6.054;2023-09-07T04:37:21;6.55;;;2.75;;
65879;SDS011;52661;51.364;6.054;2023-09-07T04:39:50;6.65;;;2.80;;
65879;SDS011;52661;51.364;6.054;2023-09-07T04:42:17;7.68;;;2.63;;
65879;SDS011;52661;51.364;6.054;2023-09-07T04:44:43;7.95;;;3.00;;
65879;SDS011;52661;51.364;6.054;2023-09-07T04:47:08;6.53;;;2.42;;
65879;SDS011;52661;51.364;6.054;2023-09-07T04:49:33;8.50;;;3.03;;
65879;SDS011;52661;51.364;6.054;2023-09-07T04:51:59;7.07;;;3.13;;
65879;SDS011;52661;51.364;6.054;2023-09-07T04:54:24;7.53;;;3.77;;
65879;SDS011;52661;51.364;6.054;2023-09-07T04:56:49;10.63;;;3.90;;
65879;SDS011;52661;51.364;6.054;2023-09-07T04:59:15;8.55;;;2.88;;
65879;SDS011;52661;51.364;6.054;2023-09-07T05:01:40;7.07;;;3.88;;
65879;SDS011;52661;51.364;6.054;2023-09-07T05:04:06;4.90;;;2.67;;
65879;SDS011;52661;51.364;6.054;2023-09-07T05:06:31;6.10;;;3.03;;
65879;SDS011;52661;51.364;6.054;2023-09-07T05:09:01;6.57;;;2.65;;
65879;SDS011;52661;51.364;6.054;2023-09-07T05:11:27;6.45;;;2.90;;
65879;SDS011;52661;51.364;6.054;2023-09-07T05:13:53;7.47;;;3.08;;
65879;SDS011;52661;51.364;6.054;2023-09-07T05:16:18;6.63;;;2.75;;
65879;SDS011;52661;51.364;6.054;2023-09-07T05:18:43;5.83;;;2.33;;
65879;SDS011;52661;51.364;6.054;2023-09-07T05:21:15;6.93;;;2.67;;
65879;SDS011;52661;51.364;6.054;2023-09-07T05:23:41;5.63;;;2.58;;
65879;SDS011;52661;51.364;6.054;2023-09-07T05:26:07;5.75;;;3.08;;
65879;SDS011;52661;51.364;6.054;2023-09-07T05:28:32;5.95;;;2.90;;
65879;SDS011;52661;51.364;6.054;2023-09-07T05:30:57;6.57;;;3.15;;
65879;SDS011;52661;51.364;6.054;2023-09-07T05:33:23;6.53;;;3.07;;
65879;SDS011;52661;51.364;6.054;2023-09-07T05:35:48;7.22;;;3.42;;
65879;SDS011;52661;51.364;6.054;2023-09-07T05:38:13;5.45;;;2.95;;
65879;SDS011;52661;51.364;6.054;2023-09-07T05:40:40;7.15;;;3.17;;
65879;SDS011;52661;51.364;6.054;2023-09-07T05:45:36;7.28;;;3.67;;
65879;SDS011;52661;51.364;6.054;2023-09-07T05:48:02;7.55;;;3.28;;
65879;SDS011;52661;51.364;6.054;2023-09-07T05:50:28;9.80;;;3.22;;
65879;SDS011;52661;51.364;6.054;2023-09-07T05:52:54;7.25;;;3.58;;
65879;SDS011;52661;51.364;6.054;2023-09-07T05:55:19;8.50;;;3.03;;
65879;SDS011;52661;51.364;6.054;2023-09-07T05:57:45;5.63;;;3.38;;
65879;SDS011;52661;51.364;6.054;2023-09-07T06:00:10;7.53;;;3.63;;
65879;SDS011;52661;51.364;6.054;2023-09-07T06:02:36;9.00;;;3.67;;
65879;SDS011;52661;51.364;6.054;2023-09-07T06:05:02;6.32;;;3.53;;
65879;SDS011;52661;51.364;6.054;2023-09-07T06:07:28;7.97;;;3.67;;
65879;SDS011;52661;51.364;6.054;2023-09-07T06:09:53;6.57;;;3.85;;
65879;SDS011;52661;51.364;6.054;2023-09-07T06:12:18;8.07;;;3.20;;
65879;SDS011;52661;51.364;6.054;2023-09-07T06:14:44;6.80;;;3.55;;
65879;SDS011;52661;51.364;6.054;2023-09-07T06:17:11;7.30;;;3.55;;
65879;SDS011;52661;51.364;6.054;2023-09-07T06:19:37;5.57;;;2.97;;
65879;SDS011;52661;51.364;6.054;2023-09-07T06:22:02;7.57;;;3.50;;
65879;SDS011;52661;51.364;6.054;2023-09-07T06:24:27;9.43;;;3.53;;
65879;SDS011;52661;51.364;6.054;2023-09-07T06:26:53;7.35;;;3.10;;
65879;SDS011;52661;51.364;6.054;2023-09-07T06:29:18;7.28;;;3.45;;
65879;SDS011;52661;51.364;6.054;2023-09-07T06:31:43;8.07;;;3.63;;
65879;SDS011;52661;51.364;6.054;2023-09-07T06:34:09;8.88;;;3.45;;
65879;SDS011;52661;51.364;6.054;2023-09-07T06:36:35;6.38;;;3.55;;
65879;SDS011;52661;51.364;6.054;2023-09-07T06:39:00;6.38;;;3.60;;
65879;SDS011;52661;51.364;6.054;2023-09-07T06:41:25;7.82;;;3.85;;
65879;SDS011;52661;51.364;6.054;2023-09-07T06:43:52;6.75;;;3.55;;
65879;SDS011;52661;51.364;6.054;2023-09-07T06:46:17;9.57;;;3.72;;
65879;SDS011;52661;51.364;6.054;2023-09-07T06:48:42;10.63;;;3.63;;
65879;SDS011;52661;51.364;6.054;2023-09-07T06:51:08;10.20;;;3.47;;
65879;SDS011;52661;51.364;6.054;2023-09-07T06:53:34;6.47;;;3.70;;
65879;SDS011;52661;51.364;6.054;2023-09-07T06:56:00;7.43;;;3.00;;
65879;SDS011;52661;51.364;6.054;2023-09-07T06:58:27;5.10;;;2.85;;
65879;SDS011;52661;51.364;6.054;2023-09-07T07:00:56;6.43;;;3.03;;
65879;SDS011;52661;51.364;6.054;2023-09-07T07:03:26;7.03;;;3.45;;
65879;SDS011;52661;51.364;6.054;2023-09-07T07:05:52;6.85;;;2.83;;
65879;SDS011;52661;51.364;6.054;2023-09-07T07:08:17;5.55;;;2.72;;
65879;SDS011;52661;51.364;6.054;2023-09-07T07:10:43;6.35;;;2.97;;
65879;SDS011;52661;51.364;6.054;2023-09-07T07:13:08;6.85;;;3.22;;
65879;SDS011;52661;51.364;6.054;2023-09-07T07:15:34;6.68;;;2.63;;
65879;SDS011;52661;51.364;6.054;2023-09-07T07:18:00;5.40;;;2.53;;
65879;SDS011;52661;51.364;6.054;2023-09-07T07:20:26;5.45;;;2.72;;
65879;SDS011;52661;51.364;6.054;2023-09-07T07:22:51;6.55;;;2.53;;
65879;SDS011;52661;51.364;6.054;2023-09-07T07:25:17;5.97;;;3.17;;
65879;SDS011;52661;51.364;6.054;2023-09-07T07:27:42;5.68;;;2.55;;
65879;SDS011;52661;51.364;6.054;2023-09-07T07:30:08;5.75;;;2.90;;
65879;SDS011;52661;51.364;6.054;2023-09-07T07:32:34;5.15;;;2.63;;
65879;SDS011;52661;51.364;6.054;2023-09-07T07:34:59;5.40;;;2.35;;
65879;SDS011;52661;51.364;6.054;2023-09-07T07:37:25;6.88;;;2.38;;
65879;SDS011;52661;51.364;6.054;2023-09-07T07:39:50;7.70;;;2.67;;
65879;SDS011;52661;51.364;6.054;2023-09-07T07:42:16;4.85;;;2.33;;
65879;SDS011;52661;51.364;6.054;2023-09-07T07:47:08;6.87;;;2.40;;
65879;SDS011;52661;51.364;6.054;2023-09-07T07:49:34;6.47;;;2.53;;
65879;SDS011;52661;51.364;6.054;2023-09-07T07:51:59;7.18;;;2.92;;
65879;SDS011;52661;51.364;6.054;2023-09-07T07:54:24;10.43;;;3.00;;
65879;SDS011;52661;51.364;6.054;2023-09-07T07:56:50;5.70;;;2.72;;
65879;SDS011;52661;51.364;6.054;2023-09-07T07:59:16;7.83;;;2.43;;
65879;SDS011;52661;51.364;6.054;2023-09-07T08:01:41;5.97;;;2.60;;
65879;SDS011;52661;51.364;6.054;2023-09-07T08:04:08;7.20;;;2.80;;
65879;SDS011;52661;51.364;6.054;2023-09-07T08:06:33;4.90;;;2.40;;
65879;SDS011;52661;51.364;6.054;2023-09-07T08:08:59;4.97;;;2.33;;
65879;SDS011;52661;51.364;6.054;2023-09-07T08:11:25;5.40;;;2.63;;
65879;SDS011;52661;51.364;6.054;2023-09-07T08:13:51;5.75;;;2.55;;
65879;SDS011;52661;51.364;6.054;2023-09-07T08:16:17;6.30;;;2.83;;
65879;SDS011;52661;51.364;6.054;2023-09-07T08:18:42;6.22;;;2.60;;
65879;SDS011;52661;51.364;6.054;2023-09-07T08:21:08;5.82;;;2.92;;
65879;SDS011;52661;51.364;6.054;2023-09-07T08:23:33;8.02;;;3.10;;
65879;SDS011;52661;51.364;6.054;2023-09-07T08:25:59;7.78;;;2.65;;
65879;SDS011;52661;51.364;6.054;2023-09-07T08:28:25;4.85;;;2.72;;
65879;SDS011;52661;51.364;6.054;2023-09-07T08:30:51;4.22;;;1.92;;
65879;SDS011;52661;51.364;6.054;2023-09-07T08:33:22;7.90;;;2.70;;
65879;SDS011;52661;51.364;6.054;2023-09-07T08:35:52;5.07;;;2.50;;
65879;SDS011;52661;51.364;6.054;2023-09-07T08:38:17;7.50;;;2.63;;
65879;SDS011;52661;51.364;6.054;2023-09-07T08:40:44;4.55;;;2.30;;
65879;SDS011;52661;51.364;6.054;2023-09-07T08:43:11;4.60;;;2.30;;
65879;SDS011;52661;51.364;6.054;2023-09-07T08:45:41;5.55;;;2.60;;
65879;SDS011;52661;51.364;6.054;2023-09-07T08:48:10;6.22;;;2.63;;
65879;SDS011;52661;51.364;6.054;2023-09-07T08:50:38;8.45;;;3.10;;
65879;SDS011;52661;51.364;6.054;2023-09-07T08:53:07;7.20;;;2.45;;
65879;SDS011;52661;51.364;6.054;2023-09-07T08:55:33;5.47;;;2.55;;
65879;SDS011;52661;51.364;6.054;2023-09-07T08:57:58;6.00;;;2.58;;
65879;SDS011;52661;51.364;6.054;2023-09-07T09:00:24;5.32;;;2.80;;
65879;SDS011;52661;51.364;6.054;2023-09-07T09:02:49;5.53;;;2.40;;
65879;SDS011;52661;51.364;6.054;2023-09-07T09:05:15;8.73;;;2.60;;
65879;SDS011;52661;51.364;6.054;2023-09-07T09:07:43;5.22;;;2.53;;
65879;SDS011;52661;51.364;6.054;2023-09-07T09:10:09;4.70;;;2.40;;
65879;SDS011;52661;51.364;6.054;2023-09-07T09:12:35;6.70;;;2.78;;
65879;SDS011;52661;51.364;6.054;2023-09-07T09:15:01;6.22;;;3.33;;
65879;SDS011;52661;51.364;6.054;2023-09-07T09:17:28;5.88;;;2.30;;
65879;SDS011;52661;51.364;6.054;2023-09-07T09:19:54;7.78;;;2.25;;
65879;SDS011;52661;51.364;6.054;2023-09-07T09:22:19;4.78;;;2.78;;
65879;SDS011;52661;51.364;6.054;2023-09-07T09:24:47;5.97;;;2.67;;
65879;SDS011;52661;51.364;6.054;2023-09-07T09:27:13;4.28;;;2.42;;
65879;SDS011;52661;51.364;6.054;2023-09-07T09:29:38;6.93;;;2.40;;
65879;SDS011;52661;51.364;6.054;2023-09-07T09:32:04;4.18;;;2.25;;
65879;SDS011;52661;51.364;6.054;2023-09-07T09:34:36;9.02;;;2.45;;
65879;SDS011;52661;51.364;6.054;2023-09-07T09:37:02;8.90;;;3.10;;
65879;SDS011;52661;51.364;6.054;2023-09-07T09:39:28;9.98;;;4.10;;
65879;SDS011;52661;51.364;6.054;2023-09-07T09:41:54;5.90;;;2.88;;
65879;SDS011;52661;51.364;6.054;2023-09-07T09:44:21;7.85;;;2.90;;
65879;SDS011;52661;51.364;6.054;2023-09-07T09:46:53;8.07;;;3.55;;
65879;SDS011;52661;51.364;6.054;2023-09-07T09:49:20;4.90;;;2.63;;
65879;SDS011;52661;51.364;6.054;2023-09-07T09:51:47;7.75;;;3.47;;
65879;SDS011;52661;51.364;6.054;2023-09-07T09:54:15;5.10;;;2.83;;
65879;SDS011;52661;51.364;6.054;2023-09-07T09:59:07;5.72;;;2.35;;
65879;SDS011;52661;51.364;6.054;2023-09-07T10:01:43;5.63;;;2.57;;
65879;SDS011;52661;51.364;6.054;2023-09-07T10:04:12;5.22;;;2.33;;
65879;SDS011;52661;51.364;6.054;2023-09-07T10:06:49;6.22;;;3.05;;
65879;SDS011;52661;51.364;6.054;2023-09-07T10:09:23;7.22;;;3.40;;
65879;SDS011;52661;51.364;6.054;2023-09-07T10:11:52;6.13;;;2.92;;
65879;SDS011;52661;51.364;6.054;2023-09-07T10:14:18;9.15;;;3.20;;
65879;SDS011;52661;51.364;6.054;2023-09-07T10:16:53;5.20;;;2.78;;
65879;SDS011;52661;51.364;6.054;2023-09-07T10:19:25;6.13;;;3.00;;
65879;SDS011;52661;51.364;6.054;2023-09-07T10:21:53;5.45;;;2.78;;
65879;SDS011;52661;51.364;6.054;2023-09-07T10:24:26;7.53;;;2.85;;
65879;SDS011;52661;51.364;6.054;2023-09-07T10:26:59;6.38;;;2.95;;
65879;SDS011;52661;51.364;6.054;2023-09-07T10:29:26;4.85;;;2.80;;
65879;SDS011;52661;51.364;6.054;2023-09-07T10:31:52;6.38;;;2.92;;
65879;SDS011;52661;51.364;6.054;2023-09-07T10:34:18;5.15;;;2.40;;
65879;SDS011;52661;51.364;6.054;2023-09-07T10:36:43;6.60;;;2.42;;
65879;SDS011;52661;51.364;6.054;2023-09-07T10:39:09;4.35;;;2.38;;
65879;SDS011;52661;51.364;6.054;2023-09-07T10:41:44;3.95;;;2.55;;
65879;SDS011;52661;51.364;6.054;2023-09-07T10:44:10;6.80;;;2.63;;
65879;SDS011;52661;51.364;6.054;2023-09-07T10:46:37;4.38;;;2.25;;
65879;SDS011;52661;51.364;6.054;2023-09-07T10:49:05;4.88;;;2.80;;
65879;SDS011;52661;51.364;6.054;2023-09-07T10:51:33;5.55;;;2.75;;
65879;SDS011;52661;51.364;6.054;2023-09-07T10:53:58;5.57;;;2.42;;
65879;SDS011;52661;51.364;6.054;2023-09-07T10:56:26;3.80;;;2.53;;
65879;SDS011;52661;51.364;6.054;2023-09-07T10:58:53;4.25;;;2.17;;
65879;SDS011;52661;51.364;6.054;2023-09-07T11:03:45;3.90;;;2.00;;
65879;SDS011;52661;51.364;6.054;2023-09-07T11:06:13;5.40;;;2.40;;
65879;SDS011;52661;51.364;6.054;2023-09-07T11:11:10;6.25;;;2.50;;
65879;SDS011;52661;51.364;6.054;2023-09-07T11:13:36;6.78;;;2.72;;
65879;SDS011;52661;51.364;6.054;2023-09-07T11:16:01;4.30;;;2.15;;
65879;SDS011;52661;51.364;6.054;2023-09-07T11:18:27;5.43;;;2.35;;
65879;SDS011;52661;51.364;6.054;2023-09-07T11:20:53;5.57;;;2.45;;
65879;SDS011;52661;51.364;6.054;2023-09-07T11:23:19;4.47;;;2.35;;
65879;SDS011;52661;51.364;6.054;2023-09-07T11:25:48;4.75;;;2.40;;
65879;SDS011;52661;51.364;6.054;2023-09-07T11:28:15;5.70;;;2.30;;
65879;SDS011;52661;51.364;6.054;2023-09-07T11:30:53;5.20;;;2.13;;
65879;SDS011;52661;51.364;6.054;2023-09-07T11:33:23;4.85;;;2.42;;
65879;SDS011;52661;51.364;6.054;2023-09-07T11:35:49;6.85;;;2.97;;
65879;SDS011;52661;51.364;6.054;2023-09-07T11:38:15;5.57;;;2.45;;
65879;SDS011;52661;51.364;6.054;2023-09-07T11:40:41;4.07;;;2.22;;
65879;SDS011;52661;51.364;6.054;2023-09-07T11:43:11;6.35;;;2.33;;
65879;SDS011;52661;51.364;6.054;2023-09-07T11:45:38;4.60;;;2.47;;
65879;SDS011;52661;51.364;6.054;2023-09-07T11:48:04;4.07;;;2.42;;
65879;SDS011;52661;51.364;6.054;2023-09-07T11:50:30;6.65;;;3.17;;
65879;SDS011;52661;51.364;6.054;2023-09-07T11:52:55;4.43;;;2.17;;
65879;SDS011;52661;51.364;6.054;2023-09-07T11:55:21;6.65;;;3.00;;
65879;SDS011;52661;51.364;6.054;2023-09-07T11:57:47;7.35;;;2.00;;
65879;SDS011;52661;51.364;6.054;2023-09-07T12:00:13;7.80;;;3.03;;
65879;SDS011;52661;51.364;6.054;2023-09-07T12:02:40;5.32;;;2.75;;
65879;SDS011;52661;51.364;6.054;2023-09-07T12:05:05;5.80;;;2.38;;
65879;SDS011;52661;51.364;6.054;2023-09-07T12:07:37;5.18;;;2.70;;
65879;SDS011;52661;51.364;6.054;2023-09-07T12:10:03;5.43;;;2.45;;
65879;SDS011;52661;51.364;6.054;2023-09-07T12:12:29;4.30;;;2.90;;
65879;SDS011;52661;51.364;6.054;2023-09-07T12:14:54;4.25;;;2.10;;
65879;SDS011;52661;51.364;6.054;2023-09-07T12:17:21;3.78;;;2.22;;
65879;SDS011;52661;51.364;6.054;2023-09-07T12:19:47;5.05;;;3.03;;
65879;SDS011;52661;51.364;6.054;2023-09-07T12:22:12;6.80;;;2.85;;
65879;SDS011;52661;51.364;6.054;2023-09-07T12:24:37;4.85;;;2.38;;
65879;SDS011;52661;51.364;6.054;2023-09-07T12:27:03;4.50;;;2.40;;
65879;SDS011;52661;51.364;6.054;2023-09-07T12:29:29;6.18;;;2.17;;
65879;SDS011;52661;51.364;6.054;2023-09-07T12:31:54;5.57;;;2.80;;
65879;SDS011;52661;51.364;6.054;2023-09-07T12:34:19;5.88;;;2.88;;
65879;SDS011;52661;51.364;6.054;2023-09-07T12:36:45;3.87;;;1.83;;
65879;SDS011;52661;51.364;6.054;2023-09-07T12:39:10;3.88;;;1.95;;
65879;SDS011;52661;51.364;6.054;2023-09-07T12:44:03;4.50;;;2.28;;
65879;SDS011;52661;51.364;6.054;2023-09-07T12:46:28;4.63;;;2.17;;
65879;SDS011;52661;51.364;6.054;2023-09-07T12:48:54;4.47;;;2.10;;
65879;SDS011;52661;51.364;6.054;2023-09-07T12:51:19;4.82;;;2.30;;
65879;SDS011;52661;51.364;6.054;2023-09-07T12:53:44;4.45;;;2.28;;
65879;SDS011;52661;51.364;6.054;2023-09-07T12:56:10;5.63;;;2.23;;
65879;SDS011;52661;51.364;6.054;2023-09-07T12:58:35;5.15;;;1.92;;
65879;SDS011;52661;51.364;6.054;2023-09-07T13:01:00;6.20;;;2.30;;
65879;SDS011;52661;51.364;6.054;2023-09-07T13:03:26;5.72;;;2.35;;
65879;SDS011;52661;51.364;6.054;2023-09-07T13:05:51;5.38;;;3.00;;
65879;SDS011;52661;51.364;6.054;2023-09-07T13:08:17;5.95;;;2.38;;
65879;SDS011;52661;51.364;6.054;2023-09-07T13:10:43;3.95;;;2.05;;
65879;SDS011;52661;51.364;6.054;2023-09-07T13:13:08;4.72;;;2.58;;
65879;SDS011;52661;51.364;6.054;2023-09-07T13:15:34;3.67;;;2.45;;
65879;SDS011;52661;51.364;6.054;2023-09-07T13:17:59;3.95;;;2.30;;
65879;SDS011;52661;51.364;6.054;2023-09-07T13:20:24;6.13;;;2.45;;
65879;SDS011;52661;51.364;6.054;2023-09-07T13:22:50;5.18;;;2.67;;
65879;SDS011;52661;51.364;6.054;2023-09-07T13:25:17;5.78;;;2.17;;
65879;SDS011;52661;51.364;6.054;2023-09-07T13:27:42;5.45;;;3.30;;
65879;SDS011;52661;51.364;6.054;2023-09-07T13:30:07;3.92;;;2.50;;
65879;SDS011;52661;51.364;6.054;2023-09-07T13:32:33;7.90;;;3.15;;
65879;SDS011;52661;51.364;6.054;2023-09-07T13:34:59;4.78;;;2.42;;
65879;SDS011;52661;51.364;6.054;2023-09-07T13:37:25;5.25;;;2.78;;
65879;SDS011;52661;51.364;6.054;2023-09-07T13:39:50;5.97;;;3.25;;
65879;SDS011;52661;51.364;6.054;2023-09-07T13:42:16;4.88;;;2.88;;
65879;SDS011;52661;51.364;6.054;2023-09-07T13:44:41;9.18;;;3.17;;
65879;SDS011;52661;51.364;6.054;2023-09-07T13:47:07;5.78;;;2.67;;
65879;SDS011;52661;51.364;6.054;2023-09-07T13:49:35;5.03;;;2.63;;
65879;SDS011;52661;51.364;6.054;2023-09-07T13:52:00;4.70;;;2.83;;
65879;SDS011;52661;51.364;6.054;2023-09-07T13:54:26;4.22;;;2.28;;
65879;SDS011;52661;51.364;6.054;2023-09-07T13:56:51;7.90;;;2.50;;
65879;SDS011;52661;51.364;6.054;2023-09-07T13:59:16;4.90;;;2.70;;
65879;SDS011;52661;51.364;6.054;2023-09-07T14:01:42;5.15;;;2.05;;
65879;SDS011;52661;51.364;6.054;2023-09-07T14:04:07;7.32;;;2.85;;
65879;SDS011;52661;51.364;6.054;2023-09-07T14:06:32;6.22;;;2.33;;
65879;SDS011;52661;51.364;6.054;2023-09-07T14:08:58;4.85;;;2.53;;
65879;SDS011;52661;51.364;6.054;2023-09-07T14:11:23;6.80;;;2.53;;
65879;SDS011;52661;51.364;6.054;2023-09-07T14:13:49;3.85;;;2.50;;
65879;SDS011;52661;51.364;6.054;2023-09-07T14:16:18;4.05;;;2.65;;
65879;SDS011;52661;51.364;6.054;2023-09-07T14:18:44;4.05;;;2.90;;
65879;SDS011;52661;51.364;6.054;2023-09-07T14:21:10;6.50;;;3.28;;
65879;SDS011;52661;51.364;6.054;2023-09-07T14:23:35;3.90;;;2.60;;
65879;SDS011;52661;51.364;6.054;2023-09-07T14:26:02;4.50;;;2.63;;
65879;SDS011;52661;51.364;6.054;2023-09-07T14:28:27;6.38;;;2.70;;
65879;SDS011;52661;51.364;6.054;2023-09-07T14:30:53;7.50;;;2.83;;
65879;SDS011;52661;51.364;6.054;2023-09-07T14:33:19;4.43;;;2.78;;
65879;SDS011;52661;51.364;6.054;2023-09-07T14:35:44;7.85;;;2.53;;
65879;SDS011;52661;51.364;6.054;2023-09-07T14:38:10;5.72;;;2.28;;
65879;SDS011;52661;51.364;6.054;2023-09-07T14:40:35;3.50;;;2.50;;
65879;SDS011;52661;51.364;6.054;2023-09-07T14:43:00;10.10;;;2.50;;
65879;SDS011;52661;51.364;6.054;2023-09-07T14:45:26;4.72;;;2.28;;
65879;SDS011;52661;51.364;6.054;2023-09-07T14:47:52;4.25;;;2.78;;
65879;SDS011;52661;51.364;6.054;2023-09-07T14:50:17;4.20;;;2.65;;
65879;SDS011;52661;51.364;6.054;2023-09-07T14:52:43;4.57;;;2.55;;
65879;SDS011;52661;51.364;6.054;2023-09-07T14:55:12;2.83;;;2.00;;
65879;SDS011;52661;51.364;6.054;2023-09-07T14:57:38;4.10;;;2.47;;